This is the latest recevied weather packets stored in our database for station/object KM4KBD. If no packets are shown the sender has not sent any weather packets the latest 1 day(s).
| Time | Temp. | Humidity | Pressure | Rain* | Wind** | Luminosity | Snow |
|---|---|---|---|---|---|---|---|
| 1778042261 | 16.11° C | 81% | 1013.2 hPa | 0 mm | - | 0 W/m² | - |
| 1778041958 | 16.11° C | 82% | 1013.2 hPa | 0 mm | - | 0 W/m² | - |
| 1778041657 | 15.56° C | 83% | 1013 hPa | 0 mm | - | 0 W/m² | - |
| 1778041355 | 15.56° C | 83% | 1013.5 hPa | 0 mm | - | 0 W/m² | - |
| 1778041053 | 15.56° C | 83% | 1013.3 hPa | 0 mm | - | 0 W/m² | - |
| 1778040750 | 15.56° C | 83% | 1013.4 hPa | 0 mm | - | 0 W/m² | - |
| 1778040447 | 15.56° C | 83% | 1013.7 hPa | 0 mm | - | 0 W/m² | - |
| 1778040144 | 15.56° C | 83% | 1013.7 hPa | 0 mm | - | 0 W/m² | - |
| 1778039841 | 15.56° C | 83% | 1013.9 hPa | 0 mm | - | 0 W/m² | - |
| 1778039234 | 15.56° C | 83% | 1014.2 hPa | 0 mm | - | 0 W/m² | - |
| 1778038932 | 15.56° C | 86% | 1014.1 hPa | 1.78 mm | - | 0 W/m² | - |
| 1778038326 | 16.11° C | 83% | 1014.3 hPa | 1.27 mm | - | 0 W/m² | - |
| 1778038023 | 16.67° C | 79% | 1014.6 hPa | 1.27 mm | - | 0 W/m² | - |
| 1778037417 | 19.44° C | 62% | 1014.8 hPa | 0 mm | - | 0 W/m² | - |
| 1778037114 | 19.44° C | 59% | 1014.4 hPa | 0 mm | - | 0 W/m² | - |
| 1778036813 | 19.44° C | 60% | 1014.6 hPa | 0 mm | - | 0 W/m² | - |
| 1778036206 | 20° C | 57% | 1014.4 hPa | 0 mm | - | 0 W/m² | - |
| 1778035902 | 20° C | 56% | 1013.8 hPa | 0 mm | - | 0 W/m² | - |
| 1778035600 | 20° C | 56% | 1014.3 hPa | 0 mm | - | 0 W/m² | - |
| 1778035296 | 19.44° C | 60% | 1014.2 hPa | 0 mm | - | 0 W/m² | - |
| 1778034992 | 20° C | 60% | 1014.2 hPa | 0 mm | - | 0 W/m² | - |
| 1778034387 | 18.89° C | 65% | 1014.2 hPa | 0 mm | - | 0 W/m² | - |
| 1778034084 | 18.33° C | 70% | 1013.9 hPa | 0 mm | - | 0 W/m² | - |
| 1778033782 | 18.33° C | 71% | 1014 hPa | 0 mm | - | 0 W/m² | - |
| 1778033479 | 18.33° C | 71% | 1014 hPa | 0 mm | - | 0 W/m² | - |
* Rain latest hour (hover to see other rain measurements)
** Current wind speed in m/s (hover to see current wind gust speed)